Kezdőlap
METAR-TAF:

METAR-TAF

Repülőterek :

Milánó-Malpensai repülőtér

Milánó, Olaszország

földrajzi szélesség: 45-37N, földrajzi hosszúság: 008-44E, magasság: 234 m

Jelenlegi meteorológiai megfigyelések

A jelentés 34 perccel ezelõtt készült, 19:50 UTC
Észak-északkeleti szél 2 kt
Hőmérséklet 6°C
Páratartalom 70%
Légköri nyomás 1031 hPa
Látótávolság: 8000 m

METAR: LIMC 221950Z 03002KT 8000 NSC 06/01 Q1031 NOSIG

Idő: 21:24 (20:24 UTC)

Előrejelzés

A jelentés 3 órával és 24 perccel ezelõtt készült, 17:00 UTC
Az előrejelzés 22-én 18 óra UTC és 23-én 24 óra UTC között érvényes
Különbözõ irányokból fújó szél 5 kt
Látótávolság 10 km, vagy több
felhőtlen 1500 m magasságban, és nincs gomolyfelhõ
23-én 00 óra UTC és 23-én 07 óra UTC között ideiglenes
Látótávolság: 4000 m
Párásság

TAF: LIMC 221700Z 2218/2324 VRB05KT CAVOK TEMPO 2300/2307 4000 BR

Meteorológiai megfigyelések és előrejelzések több, mint 4000 repülőtéren (METAR és TAF jelentéseket).

A térképen piros és sárga pontok jelzik az elérhető meteorológiai állomásokat.

Mozgassa az egeret a pont fölött, hogy megjelenjen az állomás neve.

Azután kattintson az időjárási megfigyelések és előrejelzések megtekintéséhez.

A térkép megváltoztatása: kattintson a fekete keresztel jelölt zöld gombra ráközelítéshez, a vonallal jelölt zöld gombra távolításhoz, vagy a zöld nyilakra a szomszédos térképek eléréséhez.


METAR-TAF: